createdAt,value
2018-12-11T00:00:03.736Z,18.41
2018-12-11T00:02:30.430Z,18.41
2018-12-11T00:04:57.077Z,18.35
2018-12-11T00:07:23.737Z,18.35
2018-12-11T00:09:50.440Z,18.33
2018-12-11T00:12:17.135Z,18.21
2018-12-11T00:14:43.776Z,17.81
2018-12-11T00:17:10.422Z,18.43
2018-12-11T00:19:37.074Z,18.59
2018-12-11T00:22:03.714Z,18.58
2018-12-11T00:24:30.378Z,18.38
2018-12-11T00:26:57.021Z,18.29
2018-12-11T00:29:23.679Z,18.22
2018-12-11T00:31:50.329Z,18.16
2018-12-11T00:34:16.985Z,18.09
2018-12-11T00:36:43.645Z,18.04
2018-12-11T00:39:10.280Z,18.01
2018-12-11T00:41:47.204Z,18.03
2018-12-11T00:44:13.854Z,18.00
2018-12-11T00:46:40.549Z,17.99
2018-12-11T00:49:07.190Z,17.99
2018-12-11T00:51:33.831Z,17.94
2018-12-11T00:54:00.481Z,17.92
2018-12-11T00:56:27.122Z,17.89
2018-12-11T00:58:53.777Z,17.90
2018-12-11T01:01:20.465Z,17.87
2018-12-11T01:03:47.107Z,17.87
2018-12-11T01:06:13.805Z,17.84
2018-12-11T01:08:40.500Z,17.82
2018-12-11T01:11:07.135Z,17.80
2018-12-11T01:13:33.776Z,17.80
2018-12-11T01:16:00.440Z,17.77
2018-12-11T01:18:27.124Z,17.71
2018-12-11T01:20:53.779Z,17.76
2018-12-11T01:23:20.421Z,17.77
2018-12-11T01:25:47.070Z,17.70
2018-12-11T01:28:13.714Z,17.70
2018-12-11T01:30:40.360Z,17.69
2018-12-11T01:33:07.023Z,17.71
2018-12-11T01:35:33.671Z,17.67
2018-12-11T01:38:00.309Z,17.62
2018-12-11T01:40:26.983Z,17.62
2018-12-11T01:42:53.620Z,17.60
2018-12-11T01:45:20.318Z,17.61
2018-12-11T01:47:46.960Z,17.59
2018-12-11T01:50:13.654Z,17.58
2018-12-11T01:52:40.291Z,17.53
2018-12-11T01:55:06.954Z,17.53
2018-12-11T01:57:33.589Z,17.48
2018-12-11T02:00:00.237Z,17.46
2018-12-11T02:02:26.887Z,17.46
2018-12-11T02:04:53.528Z,17.44
2018-12-11T02:07:20.182Z,17.43
2018-12-11T02:09:46.820Z,17.43
2018-12-11T02:12:13.475Z,17.38
2018-12-11T02:14:40.125Z,17.40
2018-12-11T02:17:06.835Z,17.39
2018-12-11T02:19:33.474Z,17.37
2018-12-11T02:22:00.117Z,17.33
2018-12-11T02:24:26.837Z,17.30
2018-12-11T02:26:53.501Z,17.29
2018-12-11T02:29:20.191Z,17.31
2018-12-11T02:31:46.829Z,17.26
2018-12-11T02:34:13.493Z,17.22
2018-12-11T02:36:40.129Z,17.22
2018-12-11T02:39:06.798Z,17.18
2018-12-11T02:41:33.493Z,17.18
2018-12-11T02:44:00.132Z,17.20
2018-12-11T02:46:26.783Z,17.17
2018-12-11T02:48:53.466Z,17.17
2018-12-11T02:51:20.113Z,17.15
2018-12-11T02:53:46.753Z,17.14
2018-12-11T02:56:13.400Z,17.13
2018-12-11T02:58:40.044Z,17.10
2018-12-11T03:01:06.751Z,17.10
2018-12-11T03:03:33.380Z,17.10
2018-12-11T03:06:00.073Z,17.04
2018-12-11T03:08:26.726Z,17.07
2018-12-11T03:10:53.415Z,17.07
2018-12-11T03:13:20.061Z,17.05
2018-12-11T03:15:46.703Z,17.04
2018-12-11T03:18:13.349Z,17.05
2018-12-11T03:20:39.998Z,17.06
2018-12-11T03:23:06.648Z,17.02
2018-12-11T03:25:33.335Z,17.05
2018-12-11T03:27:59.980Z,17.02
2018-12-11T03:30:26.690Z,17.00
2018-12-11T03:32:53.339Z,17.01
2018-12-11T03:35:19.976Z,17.01
2018-12-11T03:37:46.624Z,16.96
2018-12-11T03:40:13.323Z,16.98
2018-12-11T03:42:39.927Z,16.92
2018-12-11T03:45:06.603Z,16.97
2018-12-11T03:47:33.249Z,16.95
2018-12-11T03:49:59.938Z,16.91
2018-12-11T03:52:26.575Z,16.91
2018-12-11T03:54:53.220Z,16.92
2018-12-11T03:57:20.025Z,16.88
2018-12-11T03:59:46.661Z,16.88
2018-12-11T04:02:13.297Z,16.88
2018-12-11T04:04:39.949Z,16.91
2018-12-11T04:07:06.596Z,16.86
2018-12-11T04:09:33.264Z,16.89
2018-12-11T04:11:59.951Z,16.87
2018-12-11T04:14:26.596Z,16.88
2018-12-11T04:16:53.281Z,16.87
2018-12-11T04:19:19.919Z,16.88
2018-12-11T04:21:46.605Z,16.82
2018-12-11T04:24:13.245Z,16.87
2018-12-11T04:26:39.932Z,16.79
2018-12-11T04:29:06.586Z,16.87
2018-12-11T04:31:33.234Z,16.86
2018-12-11T04:33:59.921Z,16.88
2018-12-11T04:36:26.562Z,16.87
2018-12-11T04:38:53.249Z,16.89
2018-12-11T04:41:19.910Z,16.83
2018-12-11T04:43:46.554Z,16.90
2018-12-11T04:46:13.196Z,16.86
2018-12-11T04:48:39.903Z,16.86
2018-12-11T04:51:06.588Z,16.85
2018-12-11T04:53:33.223Z,16.83
2018-12-11T04:55:59.873Z,16.71
2018-12-11T04:58:26.507Z,17.32
2018-12-11T05:00:53.216Z,16.75
2018-12-11T05:03:19.859Z,16.79
2018-12-11T05:05:46.491Z,17.03
2018-12-11T05:08:13.144Z,17.07
2018-12-11T05:10:39.787Z,17.03
2018-12-11T05:13:06.441Z,17.00
2018-12-11T05:15:33.090Z,16.95
2018-12-11T05:17:59.745Z,16.91
2018-12-11T05:20:26.393Z,16.93
2018-12-11T05:22:53.112Z,17.03
2018-12-11T05:25:19.748Z,16.87
2018-12-11T05:27:46.396Z,16.91
2018-12-11T05:30:13.040Z,16.84
2018-12-11T05:32:39.727Z,16.82
2018-12-11T05:35:06.418Z,16.97
2018-12-11T05:37:33.067Z,17.16
2018-12-11T05:39:59.713Z,17.22
2018-12-11T05:42:26.364Z,17.16
2018-12-11T05:44:53.002Z,17.24
2018-12-11T05:47:19.662Z,17.32
2018-12-11T05:49:46.311Z,17.36
2018-12-11T05:52:12.966Z,17.37
2018-12-11T05:54:39.668Z,17.33
2018-12-11T05:57:06.309Z,17.29
2018-12-11T05:59:32.946Z,17.23
2018-12-11T06:01:59.651Z,17.17
2018-12-11T06:04:26.339Z,17.22
2018-12-11T06:06:52.971Z,17.24
2018-12-11T06:09:19.614Z,17.22
2018-12-11T06:11:46.264Z,17.21
2018-12-11T06:14:12.916Z,17.20
2018-12-11T06:16:39.563Z,17.17
2018-12-11T06:19:06.254Z,17.15
2018-12-11T06:21:32.917Z,17.01
2018-12-11T06:23:59.569Z,17.07
2018-12-11T06:26:26.308Z,17.11
2018-12-11T06:28:53.074Z,17.13
2018-12-11T06:31:19.718Z,17.14
2018-12-11T06:33:46.376Z,17.16
2018-12-11T06:36:13.041Z,17.06
2018-12-11T06:38:39.688Z,17.08
2018-12-11T06:41:06.339Z,17.12
2018-12-11T06:43:32.981Z,17.15
2018-12-11T06:45:59.668Z,17.08
2018-12-11T06:48:26.304Z,17.02
2018-12-11T06:50:53.009Z,16.99
2018-12-11T06:53:19.662Z,17.16
2018-12-11T06:55:46.353Z,17.09
2018-12-11T06:58:13.003Z,17.12
2018-12-11T07:00:39.647Z,17.24
2018-12-11T07:03:06.359Z,17.24
2018-12-11T07:05:36.234Z,17.02
2018-12-11T07:08:02.950Z,17.13
2018-12-11T07:10:29.588Z,17.02
2018-12-11T07:12:56.242Z,16.99
2018-12-11T07:15:22.899Z,16.97
2018-12-11T07:17:49.538Z,17.23
2018-12-11T07:20:16.198Z,17.47
2018-12-11T07:22:42.847Z,17.43
2018-12-11T07:25:09.532Z,17.53
2018-12-11T07:27:36.235Z,17.59
2018-12-11T07:30:03.050Z,17.68
2018-12-11T07:32:30.078Z,17.65
2018-12-11T07:34:56.722Z,17.57
2018-12-11T07:37:23.420Z,17.53
2018-12-11T07:39:50.074Z,17.45
2018-12-11T07:42:16.773Z,17.48
2018-12-11T07:44:43.472Z,17.51
2018-12-11T07:47:10.212Z,17.48
2018-12-11T07:49:36.896Z,17.41
2018-12-11T07:52:03.555Z,17.34
2018-12-11T07:54:30.415Z,17.17
2018-12-11T07:56:57.071Z,17.05
2018-12-11T07:59:23.782Z,16.91
2018-12-11T08:01:50.479Z,16.83
2018-12-11T08:04:17.268Z,16.84
2018-12-11T08:06:43.923Z,16.83
2018-12-11T08:09:10.579Z,16.49
2018-12-11T08:11:37.614Z,16.49
2018-12-11T08:14:04.434Z,16.74
2018-12-11T08:16:31.126Z,16.65
2018-12-11T08:18:58.143Z,16.96
2018-12-11T08:21:24.781Z,17.19
2018-12-11T08:23:51.425Z,17.11
2018-12-11T08:26:18.086Z,16.99
2018-12-11T08:28:44.804Z,16.55
2018-12-11T08:31:11.469Z,16.60
2018-12-11T08:33:38.180Z,16.58
2018-12-11T08:36:04.831Z,16.62
2018-12-11T08:38:31.544Z,16.67
2018-12-11T08:40:58.283Z,16.56
2018-12-11T08:43:24.931Z,16.84
2018-12-11T08:45:51.581Z,16.62
2018-12-11T08:48:18.402Z,16.70
2018-12-11T08:50:45.047Z,16.89
2018-12-11T08:53:11.735Z,16.93
2018-12-11T08:55:38.403Z,16.81
2018-12-11T08:58:05.137Z,16.75
2018-12-11T09:00:31.785Z,17.08
2018-12-11T09:02:58.427Z,16.93
2018-12-11T09:05:25.082Z,17.01
2018-12-11T09:07:51.896Z,17.09
2018-12-11T09:10:18.646Z,17.02
2018-12-11T09:12:45.274Z,17.19
2018-12-11T09:15:11.931Z,17.14
2018-12-11T09:17:38.651Z,17.06
2018-12-11T09:20:06.442Z,17.08
2018-12-11T09:22:33.158Z,16.90
2018-12-11T09:24:59.895Z,17.16
2018-12-11T09:27:26.551Z,16.80
2018-12-11T09:29:53.192Z,17.21
2018-12-11T09:32:19.873Z,17.31
2018-12-11T09:34:46.703Z,17.45
2018-12-11T09:37:13.288Z,17.10
2018-12-11T09:39:39.933Z,17.22
2018-12-11T09:42:07.397Z,17.20
2018-12-11T09:44:33.221Z,17.11
2018-12-11T09:46:59.857Z,17.30
2018-12-11T09:49:26.559Z,17.30
2018-12-11T09:51:53.280Z,17.19
2018-12-11T09:54:19.958Z,17.27
2018-12-11T09:56:46.621Z,16.85
2018-12-11T09:59:13.318Z,16.71
2018-12-11T10:01:40.025Z,16.83
2018-12-11T10:04:06.712Z,17.01
2018-12-11T10:06:33.554Z,16.69
2018-12-11T10:09:00.242Z,17.02
2018-12-11T10:11:26.948Z,16.24
2018-12-11T10:14:02.496Z,16.67
2018-12-11T10:16:29.138Z,16.78
2018-12-11T10:18:55.890Z,16.66
2018-12-11T10:21:22.548Z,16.52
2018-12-11T10:23:49.207Z,16.86
2018-12-11T10:26:17.243Z,16.65
2018-12-11T10:28:42.562Z,17.10
2018-12-11T10:31:09.258Z,16.59
2018-12-11T10:33:38.552Z,17.00
2018-12-11T10:36:08.396Z,16.95
2018-12-11T10:38:35.054Z,17.07
2018-12-11T10:41:01.742Z,16.99
2018-12-11T10:43:28.382Z,17.57
2018-12-11T10:45:55.164Z,17.27
2018-12-11T10:48:21.873Z,17.20
2018-12-11T10:50:48.475Z,16.94
2018-12-11T10:53:15.201Z,17.50
2018-12-11T10:55:41.937Z,17.08
2018-12-11T10:58:08.827Z,17.27
2018-12-11T11:00:35.470Z,17.23
2018-12-11T11:03:02.138Z,17.17
2018-12-11T11:05:28.785Z,16.99
2018-12-11T11:07:55.473Z,17.01
2018-12-11T11:10:22.136Z,17.02
2018-12-11T11:12:49.015Z,16.97
2018-12-11T11:15:15.601Z,17.25
2018-12-11T11:17:42.326Z,17.25
2018-12-11T11:20:08.993Z,16.80
2018-12-11T11:22:35.629Z,17.16
2018-12-11T11:25:02.277Z,17.22
2018-12-11T11:27:28.940Z,16.66
2018-12-11T11:29:55.630Z,17.09
2018-12-11T11:32:22.289Z,16.94
2018-12-11T11:34:48.946Z,17.50
2018-12-11T11:37:15.592Z,16.97
2018-12-11T11:39:42.299Z,16.85
2018-12-11T11:42:08.939Z,16.58
2018-12-11T11:44:35.604Z,17.13
2018-12-11T11:47:02.245Z,16.93
2018-12-11T11:49:29.976Z,17.25
2018-12-11T11:51:56.674Z,17.34
2018-12-11T11:54:23.359Z,17.36
2018-12-11T11:56:49.990Z,17.11
2018-12-11T11:59:16.647Z,17.15
2018-12-11T12:01:43.303Z,17.27
2018-12-11T12:04:09.951Z,17.27
2018-12-11T12:06:36.695Z,17.14
2018-12-11T12:09:03.366Z,17.18
2018-12-11T12:11:30.127Z,16.99
2018-12-11T12:13:56.766Z,16.95
2018-12-11T12:16:23.484Z,17.18
2018-12-11T12:18:50.141Z,17.19
2018-12-11T12:21:16.785Z,17.25
2018-12-11T12:23:43.597Z,17.56
2018-12-11T12:26:10.291Z,17.35
2018-12-11T12:28:36.930Z,17.16
2018-12-11T12:31:03.628Z,17.45
2018-12-11T12:33:30.276Z,17.01
2018-12-11T12:35:56.951Z,17.12
2018-12-11T12:38:23.653Z,17.31
2018-12-11T12:40:50.305Z,17.06
2018-12-11T12:43:17.009Z,17.04
2018-12-11T12:45:43.653Z,17.22
2018-12-11T12:48:10.335Z,17.02
2018-12-11T12:50:36.986Z,17.11
2018-12-11T12:53:03.743Z,17.39
2018-12-11T12:55:31.510Z,17.12
2018-12-11T12:57:57.071Z,17.00
2018-12-11T13:00:24.132Z,17.09
2018-12-11T13:02:50.829Z,17.44
2018-12-11T13:05:17.557Z,17.37
2018-12-11T13:07:44.196Z,16.86
2018-12-11T13:10:12.681Z,16.79
2018-12-11T13:12:39.522Z,17.19
2018-12-11T13:15:07.262Z,16.97
2018-12-11T13:17:32.990Z,17.35
2018-12-11T13:19:59.648Z,16.88
2018-12-11T13:22:26.339Z,17.02
2018-12-11T13:24:53.015Z,17.35
2018-12-11T13:27:19.724Z,17.11
2018-12-11T13:29:46.367Z,17.30
2018-12-11T13:32:13.009Z,17.24
2018-12-11T13:34:40.026Z,17.09
2018-12-11T13:37:06.725Z,16.99
2018-12-11T13:39:33.386Z,17.30
2018-12-11T13:42:00.027Z,17.07
2018-12-11T13:44:26.681Z,17.35
2018-12-11T13:46:53.465Z,17.26
2018-12-11T13:49:20.192Z,17.21
2018-12-11T13:51:46.833Z,17.40
2018-12-11T13:54:13.482Z,17.06
2018-12-11T13:56:40.178Z,17.22
2018-12-11T13:59:06.849Z,17.01
2018-12-11T14:01:35.585Z,17.31
2018-12-11T14:04:03.851Z,17.46
2018-12-11T14:06:28.923Z,17.58
2018-12-11T14:08:55.560Z,17.76
2018-12-11T14:11:22.286Z,17.51
2018-12-11T14:13:49.025Z,17.73
2018-12-11T14:16:15.683Z,17.79
2018-12-11T14:18:42.320Z,17.65
2018-12-11T14:21:09.023Z,17.47
2018-12-11T14:23:35.688Z,17.70
2018-12-11T14:26:02.393Z,17.80
2018-12-11T14:28:29.064Z,17.83
2018-12-11T14:30:55.814Z,17.66
2018-12-11T14:33:22.469Z,17.62
2018-12-11T14:35:49.229Z,17.48
2018-12-11T14:38:16.086Z,17.84
2018-12-11T14:40:42.710Z,17.74
2018-12-11T14:43:09.555Z,17.70
2018-12-11T14:45:36.211Z,17.54
2018-12-11T14:48:02.849Z,17.28
2018-12-11T14:50:29.508Z,17.65
2018-12-11T14:52:56.205Z,17.71
2018-12-11T14:55:22.854Z,17.76
2018-12-11T14:57:49.500Z,17.73
2018-12-11T15:00:16.163Z,17.55
2018-12-11T15:02:42.811Z,17.57
2018-12-11T15:05:09.468Z,17.59
2018-12-11T15:07:36.282Z,17.58
2018-12-11T15:10:02.921Z,17.39
2018-12-11T15:12:29.575Z,17.42
2018-12-11T15:14:59.192Z,17.32
2018-12-11T15:17:25.844Z,17.37
2018-12-11T15:19:52.492Z,17.31
2018-12-11T15:22:19.154Z,17.33
2018-12-11T15:24:45.857Z,17.17
2018-12-11T15:27:13.698Z,17.18
2018-12-11T15:29:42.755Z,17.21
2018-12-11T15:32:09.399Z,17.18
2018-12-11T15:34:36.086Z,17.01
2018-12-11T15:37:02.742Z,17.06
2018-12-11T15:39:35.604Z,17.06
2018-12-11T15:41:56.169Z,17.05
2018-12-11T15:44:22.908Z,16.90
2018-12-11T15:46:49.553Z,16.90
2018-12-11T15:49:16.283Z,16.87
2018-12-11T15:51:42.855Z,16.87
2018-12-11T15:54:09.525Z,16.89
2018-12-11T15:56:36.178Z,16.85
2018-12-11T15:59:02.834Z,16.72
2018-12-11T16:01:29.483Z,16.74
2018-12-11T16:03:56.126Z,16.73
2018-12-11T16:06:22.769Z,16.71
2018-12-11T16:08:49.421Z,16.67
2018-12-11T16:11:16.063Z,16.64
2018-12-11T16:13:42.716Z,16.59
2018-12-11T16:16:09.367Z,16.56
2018-12-11T16:18:37.068Z,16.54
2018-12-11T16:21:03.766Z,16.11
2018-12-11T16:23:30.417Z,16.79
2018-12-11T16:25:57.078Z,16.91
2018-12-11T16:28:23.821Z,16.85
2018-12-11T16:30:50.453Z,16.43
2018-12-11T16:33:17.113Z,16.39
2018-12-11T16:35:43.777Z,16.30
2018-12-11T16:38:10.450Z,16.28
2018-12-11T16:40:37.104Z,16.25
2018-12-11T16:43:03.761Z,16.23
2018-12-11T16:45:30.408Z,15.93
2018-12-11T16:47:57.090Z,16.16
2018-12-11T16:50:24.999Z,16.20
2018-12-11T16:52:50.379Z,16.22
2018-12-11T16:55:17.039Z,16.22
2018-12-11T16:57:43.791Z,16.24
2018-12-11T17:00:10.447Z,16.21
2018-12-11T17:02:37.085Z,16.13
2018-12-11T17:05:03.802Z,16.12
2018-12-11T17:07:30.431Z,16.10
2018-12-11T17:09:57.075Z,16.05
2018-12-11T17:12:23.739Z,16.03
2018-12-11T17:14:50.382Z,16.00
2018-12-11T17:17:17.044Z,15.95
2018-12-11T17:19:43.695Z,15.93
2018-12-11T17:22:10.355Z,15.88
2018-12-11T17:24:37.030Z,15.85
2018-12-11T17:27:03.666Z,15.80
2018-12-11T17:29:30.317Z,15.77
2018-12-11T17:31:56.966Z,15.69
2018-12-11T17:34:23.633Z,15.72
2018-12-11T17:36:50.280Z,15.70
2018-12-11T17:39:16.943Z,15.64
2018-12-11T17:41:43.590Z,15.58
2018-12-11T17:44:10.286Z,15.60
2018-12-11T17:46:36.943Z,15.55
2018-12-11T17:49:03.685Z,15.54
2018-12-11T17:51:30.332Z,15.55
2018-12-11T17:53:58.901Z,15.52
2018-12-11T17:56:23.688Z,15.47
2018-12-11T17:58:50.338Z,15.46
2018-12-11T18:01:16.976Z,15.39
2018-12-11T18:03:45.022Z,15.41
2018-12-11T18:06:10.320Z,15.39
2018-12-11T18:08:36.959Z,15.35
2018-12-11T18:11:03.665Z,15.34
2018-12-11T18:13:30.297Z,15.35
2018-12-11T18:15:56.942Z,15.32
2018-12-11T18:18:23.746Z,15.30
2018-12-11T18:20:50.394Z,15.30
2018-12-11T18:23:18.361Z,15.30
2018-12-11T18:25:43.743Z,15.29
2018-12-11T18:28:10.519Z,15.25
2018-12-11T18:30:37.203Z,15.19
2018-12-11T18:33:03.910Z,15.24
2018-12-11T18:35:30.549Z,15.21
2018-12-11T18:37:57.232Z,15.19
2018-12-11T18:40:23.915Z,15.22
2018-12-11T18:42:50.632Z,15.19
2018-12-11T18:45:17.380Z,15.16
2018-12-11T18:47:49.736Z,15.17
2018-12-11T18:50:10.865Z,15.15
2018-12-11T18:52:37.641Z,15.18
2018-12-11T18:55:04.263Z,15.15
2018-12-11T18:57:30.975Z,15.13
2018-12-11T18:59:57.636Z,15.14
2018-12-11T19:02:24.464Z,15.12
2018-12-11T19:04:51.128Z,15.18
2018-12-11T19:07:17.835Z,15.12
2018-12-11T19:09:44.567Z,15.14
2018-12-11T19:12:11.235Z,15.15
2018-12-11T19:14:37.966Z,15.14
2018-12-11T19:17:04.711Z,15.12
2018-12-11T19:19:31.347Z,15.13
2018-12-11T19:21:57.994Z,15.05
2018-12-11T19:24:24.671Z,15.08
2018-12-11T19:26:51.335Z,15.07
2018-12-11T19:29:19.286Z,15.08
2018-12-11T19:31:44.671Z,15.02
2018-12-11T19:34:11.457Z,15.02
2018-12-11T19:36:38.096Z,14.95
2018-12-11T19:39:04.763Z,14.99
2018-12-11T19:41:31.445Z,15.06
2018-12-11T19:43:58.238Z,15.07
2018-12-11T19:46:24.892Z,15.03
2018-12-11T19:48:51.540Z,15.08
2018-12-11T19:51:18.186Z,15.02
2018-12-11T19:53:44.835Z,15.03
2018-12-11T19:56:11.493Z,15.05
2018-12-11T19:58:38.141Z,15.04
2018-12-11T20:01:04.804Z,14.99
2018-12-11T20:03:31.453Z,14.97
2018-12-11T20:05:58.099Z,15.01
2018-12-11T20:08:30.871Z,14.99
2018-12-11T20:10:54.392Z,14.99
2018-12-11T20:13:21.105Z,14.97
2018-12-11T20:15:47.782Z,14.96
2018-12-11T20:18:14.475Z,14.95
2018-12-11T20:20:41.124Z,14.95
2018-12-11T20:23:07.772Z,14.97
2018-12-11T20:25:34.409Z,14.96
2018-12-11T20:28:01.058Z,14.95
2018-12-11T20:30:27.709Z,14.94
2018-12-11T20:32:54.363Z,14.88
2018-12-11T20:35:21.007Z,14.92
2018-12-11T20:37:47.659Z,14.91
2018-12-11T20:40:14.316Z,14.91
2018-12-11T20:42:40.951Z,14.88
2018-12-11T20:45:07.606Z,14.87
2018-12-11T20:47:34.251Z,14.89
2018-12-11T20:50:00.910Z,14.89
2018-12-11T20:52:27.551Z,14.85
2018-12-11T20:54:54.259Z,14.83
2018-12-11T20:57:20.897Z,14.86
2018-12-11T20:59:47.573Z,14.89
2018-12-11T21:02:14.252Z,14.86
2018-12-11T21:04:40.907Z,14.87
2018-12-11T21:07:07.600Z,14.86
2018-12-11T21:09:34.251Z,14.84
2018-12-11T21:12:00.903Z,14.86
2018-12-11T21:14:27.540Z,14.85
2018-12-11T21:16:54.245Z,14.86
2018-12-11T21:19:20.943Z,14.88
2018-12-11T21:21:47.592Z,14.87
2018-12-11T21:24:14.258Z,14.88
2018-12-11T21:26:40.913Z,14.81
2018-12-11T21:29:07.561Z,14.87
2018-12-11T21:31:34.198Z,14.86
2018-12-11T21:34:00.858Z,14.92
2018-12-11T21:36:27.497Z,14.91
2018-12-11T21:38:54.146Z,14.91
2018-12-11T21:41:20.786Z,14.92
2018-12-11T21:43:47.477Z,14.93
2018-12-11T21:46:14.126Z,14.96
2018-12-11T21:48:40.773Z,14.91
2018-12-11T21:51:07.465Z,14.94
2018-12-11T21:53:34.124Z,14.95
2018-12-11T21:56:00.762Z,14.96
2018-12-11T21:58:27.426Z,14.96
2018-12-11T22:00:54.118Z,14.95
2018-12-11T22:03:20.752Z,14.96
2018-12-11T22:05:47.407Z,14.96
2018-12-11T22:08:14.099Z,14.97
2018-12-11T22:10:40.739Z,14.94
2018-12-11T22:13:07.385Z,14.97
2018-12-11T22:15:34.022Z,14.99
2018-12-11T22:18:00.712Z,14.98
2018-12-11T22:20:27.358Z,14.99
2018-12-11T22:22:54.052Z,14.99
2018-12-11T22:25:20.705Z,14.97
2018-12-11T22:27:47.374Z,14.98
2018-12-11T22:30:14.038Z,14.98
2018-12-11T22:32:40.686Z,14.99
2018-12-11T22:35:07.383Z,15.00
2018-12-11T22:37:34.038Z,14.98
2018-12-11T22:40:00.682Z,14.99
2018-12-11T22:42:27.341Z,14.97
2018-12-11T22:44:54.027Z,14.99
2018-12-11T22:47:20.664Z,15.00
2018-12-11T22:49:47.317Z,14.95
2018-12-11T22:52:13.965Z,14.96
2018-12-11T22:54:40.626Z,14.92
2018-12-11T22:57:07.271Z,14.90
2018-12-11T22:59:33.926Z,14.90
2018-12-11T23:02:00.585Z,14.89
2018-12-11T23:04:27.227Z,14.89
2018-12-11T23:06:53.869Z,14.91
2018-12-11T23:09:20.508Z,14.89
2018-12-11T23:11:47.145Z,14.90
2018-12-11T23:14:13.782Z,14.90
2018-12-11T23:16:40.524Z,14.84
2018-12-11T23:19:07.161Z,14.86
2018-12-11T23:21:33.856Z,14.90
2018-12-11T23:24:00.484Z,14.89
2018-12-11T23:26:27.146Z,14.88
2018-12-11T23:28:53.791Z,14.87
2018-12-11T23:31:20.438Z,14.87
2018-12-11T23:33:47.129Z,14.86
2018-12-11T23:36:13.769Z,14.87
2018-12-11T23:38:40.455Z,14.87
2018-12-11T23:41:07.105Z,14.86
2018-12-11T23:43:33.756Z,14.86
2018-12-11T23:46:00.400Z,14.85
2018-12-11T23:48:27.055Z,14.81
2018-12-11T23:50:53.756Z,14.82
2018-12-11T23:53:20.401Z,14.82
2018-12-11T23:55:47.052Z,14.80
2018-12-11T23:58:13.708Z,14.76
